Archival Weather

Republic

Farmingdale, New York (KFRG)

Report from: Wednesday, February 7, 2024 12:53 AM EST
Current time: Monday, June 24, 2024 5:23 AM EDT

Current weather – Weather history – Daily summaries
Weather forecast

Temperature-0.6°C (30.9°F)
Wind chill-3.2°C (26.2°F)
Dew point-5.0°C (23.0°F)
Winds 4 kts (2.1 m/s, 4.6 mph) North (10°)
Visibility10 mi. (16.1 km)
Clouds Sky clear
Altimeter30.23 in.Hg (1024 mB)
Relative humidity72 %
Density altitude-2,198 ft. (-670 m)
Sea-level pressure102.4 kPa (1024 mB, 30.23 in.Hg)
Max temp last 6 hours2.2°C (36.0°F)
Min temp last 6 hours-1.1°C (30.0°F)
Remarks Fully automated report
Automated weather observing station without precipitation discriminator
Freezing rain sensor not operating
Pressure rising, then falling
Flight conditions Visual Meteorological Conditions
Raw dataKFRG 070553Z AUTO 01004KT 10SM CLR M01/M05 A3023 RMK AO1 SLP237 T10061050 10022 21011 50000 FZRANO
An error has occurred. This application may no longer respond until reloaded. Reload 🗙